Aeroporto :
LOGIN :

Iscrizione | Disclaimer

   EN    FR    IT 

 










Sommario :    VFR   VFR Marginale   IFR   IFR Intensivo   IFR Molto Intensivo
Visibilità : 
Base nubi : 
>= 8 km
>= 3000ft
5 / 8 km
1000 / 3000 ft
1500m / 5 km
500 / 1000 ft
800 / 1500m
200 / 500 ft
< 800m
< 200 ft
Simboli :   Temporali  Nebbia  Neve Forte  Precipitazioni Forti  Vento > 20 kt
SIGMETs :   Varie  Temporali  Ghiacco  Turbolenza  Onda orograficha  Ceneri Vulcaniche






- Altitudine del aeroporto : 38 ft
- Codice IATA : BOH


EGHH - Bournemouth

ULTIMO METAR :
  • 121250Z 17007KT CAVOK 29/16 Q1012

METARs OBSOLETI :
  • 121220Z 17009KT CAVOK 29/17 Q1012
  • 121150Z 16009KT 120V190 CAVOK 31/15 Q1012
  • 121120Z 14009KT 110V180 CAVOK 30/14 Q1013
  • 121050Z 13009KT 090V160 CAVOK 31/15 Q1013
  • 121020Z 13009KT CAVOK 30/14 Q1013

TAF TAF EGHH
Valido dal 12 a 12 ore il 12 a 21 ore UTC


121104Z 1212/1221 13008KT CAVOK
PROB30
TEMPO 1217/1221 4000 TSRA
ATIS : +44 1202 364 151
Met : +44 1202 364 158 (TAF)



MetMap, La meteo Aeronautica in un colpo d'occhio ! - Copyright ORBIFLY Dicembre 2007 - Disclaimer

ORBIFLY MET'MAP TEAM :

Programmazione e sviluppo : Alexandra Zaïnal
Concezione : Baudouin d'Aumeries
Aiuto per la programmazione : Marc-Olivier Méhu
Supporto tecnico e logistico : Manuel Goepfert
Aiuto per la traduzione : Arnaldo La Scala

Contatto : metmap@orbifly.com




FONTI E CREDITI :

   NOAA